Time;durP1;ratioP1;P1;durP2;ratioP2;P2;SDS_P1;SDS_P2;PMS_P1;PMS_P2;Temp;Humidity;BMP_temperature;BMP_pressure;BME280_temperature;BME280_humidity;BME280_pressure;Samples;Min_cycle;Max_cycle;Signal;HPM_P1;HPM_P2
2023/06/19 00:01:47;;;;;;;8.50;7.70;;;29.20;36.00;;;;;;5011509;28;20201;-52
2023/06/19 00:04:13;;;;;;;8.77;7.97;;;29.10;36.40;;;;;;5010734;28;20206;-50
2023/06/19 00:06:38;;;;;;;7.90;7.30;;;29.10;36.30;;;;;;5011161;28;20417;-51
2023/06/19 00:09:04;;;;;;;8.33;7.73;;;29.00;36.80;;;;;;5023882;28;20301;-49
2023/06/19 00:11:30;;;;;;;8.87;8.07;;;29.10;36.60;;;;;;5011239;28;20251;-52
2023/06/19 00:13:56;;;;;;;9.57;8.60;;;29.10;36.80;;;;;;5010590;28;20530;-51
2023/06/19 00:16:24;;;;;;;9.63;8.63;;;29.30;36.40;;;;;;5011043;28;20687;-49
2023/06/19 00:18:51;;;;;;;8.83;8.13;;;29.50;36.00;;;;;;5016625;28;20245;-51
2023/06/19 00:21:17;;;;;;;7.67;7.07;;;29.70;35.90;;;;;;5027292;28;20476;-52
2023/06/19 00:23:42;;;;;;;8.20;7.43;;;29.90;35.80;;;;;;5030113;28;20471;-50
2023/06/19 00:26:08;;;;;;;8.00;7.40;;;30.00;35.90;;;;;;5029204;28;20197;-46
2023/06/19 00:28:34;;;;;;;8.03;7.37;;;30.10;36.00;;;;;;5029574;28;20193;-49
2023/06/19 00:30:59;;;;;;;8.57;7.87;;;30.20;36.10;;;;;;5030914;28;20225;-49
2023/06/19 00:33:25;;;;;;;9.43;7.70;;;30.20;36.00;;;;;;5030031;28;20193;-47
2023/06/19 00:35:51;;;;;;;7.93;7.33;;;30.20;35.80;;;;;;5030269;28;20259;-51
2023/06/19 00:38:17;;;;;;;7.60;7.00;;;30.20;35.50;;;;;;5013296;28;20198;-50
2023/06/19 00:40:43;;;;;;;8.47;7.50;;;30.30;35.30;;;;;;5027488;28;20510;-50
2023/06/19 00:43:08;;;;;;;7.77;7.07;;;30.30;35.40;;;;;;5029964;28;20190;-51
2023/06/19 00:45:34;;;;;;;8.77;8.00;;;30.30;35.30;;;;;;5025705;28;20197;-48
2023/06/19 00:48:00;;;;;;;7.63;6.97;;;30.30;35.40;;;;;;5029733;28;20306;-49
2023/06/19 00:50:29;;;;;;;7.83;7.13;;;30.30;35.30;;;;;;5030831;28;20311;-50
2023/06/19 00:52:54;;;;;;;8.23;7.63;;;30.40;35.30;;;;;;5028221;28;20444;-50
2023/06/19 00:55:21;;;;;;;7.20;6.70;;;30.40;35.40;;;;;;5028796;28;20446;-50
2023/06/19 00:57:49;;;;;;;7.50;6.90;;;30.40;35.20;;;;;;5015333;28;20205;-48
2023/06/19 01:00:14;;;;;;;8.00;7.40;;;30.40;35.30;;;;;;5014530;28;20433;-49
2023/06/19 01:02:40;;;;;;;8.13;7.53;;;30.30;35.30;;;;;;5014697;28;20479;-47
2023/06/19 01:05:06;;;;;;;7.53;6.83;;;30.40;35.20;;;;;;5016525;28;20197;-46
2023/06/19 01:07:58;;;;;;;8.03;7.23;;;30.40;35.10;;;;;;5016678;28;20189;-46
2023/06/19 01:10:38;;;;;;;8.53;7.73;;;30.40;35.20;;;;;;5014481;28;20229;-48
2023/06/19 01:13:23;;;;;;;6.97;6.37;;;30.40;35.20;;;;;;5014227;28;20428;-47
2023/06/19 01:15:50;;;;;;;8.07;7.37;;;30.40;35.50;;;;;;5014027;28;20452;-46
2023/06/19 01:18:16;;;;;;;8.20;7.50;;;30.40;35.70;;;;;;5012392;28;20470;-46
2023/06/19 01:20:42;;;;;;;9.80;8.00;;;30.40;35.70;;;;;;5014618;28;20788;-52
2023/06/19 01:23:11;;;;;;;8.10;7.40;;;30.40;35.60;;;;;;5013814;28;20433;-46
2023/06/19 01:25:37;;;;;;;7.67;6.80;;;30.40;35.90;;;;;;5013571;28;20210;-46
2023/06/19 01:28:05;;;;;;;7.43;6.93;;;30.30;36.40;;;;;;5030889;28;20455;-49
2023/06/19 01:30:32;;;;;;;8.80;8.10;;;30.20;35.90;;;;;;5014516;28;20520;-49
2023/06/19 01:33:10;;;;;;;8.57;7.53;;;30.00;35.80;;;;;;5013900;28;20420;-51
2023/06/19 01:35:39;;;;;;;7.40;6.70;;;29.80;36.90;;;;;;5021883;28;20477;-51
2023/06/19 01:38:07;;;;;;;7.40;6.80;;;29.20;37.10;;;;;;5025156;28;20852;-48
2023/06/19 01:40:33;;;;;;;7.47;6.93;;;29.00;37.60;;;;;;5033798;28;20424;-47
2023/06/19 01:43:04;;;;;;;9.17;8.27;;;29.10;37.70;;;;;;5033028;28;20467;-46
2023/06/19 01:45:30;;;;;;;7.60;6.90;;;29.20;37.70;;;;;;5031888;28;20424;-47
2023/06/19 01:47:57;;;;;;;8.17;7.57;;;29.40;37.20;;;;;;5030217;28;20554;-51
2023/06/19 01:50:24;;;;;;;8.43;7.63;;;29.60;36.90;;;;;;5032258;28;20574;-46
2023/06/19 01:52:50;;;;;;;7.10;6.40;;;29.60;36.70;;;;;;5033522;28;20448;-47
2023/06/19 01:55:16;;;;;;;6.23;5.60;;;29.50;36.90;;;;;;5032306;28;20934;-46
2023/06/19 01:57:42;;;;;;;6.10;5.50;;;29.00;37.80;;;;;;5017516;28;20433;-49
2023/06/19 02:00:08;;;;;;;6.10;5.50;;;29.00;38.30;;;;;;5031527;28;20232;-45
2023/06/19 02:02:34;;;;;;;5.97;5.37;;;28.80;38.80;;;;;;5033189;28;20201;-50
2023/06/19 02:04:59;;;;;;;6.00;5.60;;;28.90;38.80;;;;;;5032861;28;20196;-47
2023/06/19 02:07:25;;;;;;;5.30;5.00;;;29.00;38.70;;;;;;5033488;28;20424;-49
2023/06/19 02:09:50;;;;;;;5.90;5.40;;;29.10;38.40;;;;;;5020250;28;20238;-45
2023/06/19 02:12:16;;;;;;;5.60;4.90;;;29.20;38.40;;;;;;5013113;28;20677;-45
2023/06/19 02:14:42;;;;;;;6.00;5.40;;;29.20;38.40;;;;;;5012997;28;20559;-50
2023/06/19 02:17:07;;;;;;;10.73;5.17;;;29.30;38.20;;;;;;5014295;28;20190;-46
2023/06/19 02:19:33;;;;;;;5.23;4.93;;;29.40;38.00;;;;;;5030481;28;20255;-49
2023/06/19 02:21:58;;;;;;;8.53;6.30;;;29.40;37.90;;;;;;5027635;28;20194;-47
2023/06/19 02:24:24;;;;;;;6.03;5.40;;;29.50;38.00;;;;;;5012839;28;20672;-46
2023/06/19 02:26:50;;;;;;;5.47;5.00;;;29.50;38.00;;;;;;5019474;28;20204;-45
2023/06/19 02:29:16;;;;;;;5.10;4.70;;;29.50;38.00;;;;;;5032428;28;20213;-50
2023/06/19 02:31:42;;;;;;;5.10;4.77;;;29.50;38.10;;;;;;5032866;28;20427;-47
2023/06/19 02:34:08;;;;;;;5.77;5.27;;;29.50;38.20;;;;;;5032463;28;20264;-45
2023/06/19 02:36:35;;;;;;;5.50;5.00;;;29.50;38.30;;;;;;5030565;28;20460;-51
2023/06/19 02:39:01;;;;;;;5.90;5.50;;;29.40;38.40;;;;;;5020110;28;20967;-46
2023/06/19 02:41:26;;;;;;;5.57;5.13;;;29.40;38.40;;;;;;5013191;28;20434;-47
2023/06/19 02:43:52;;;;;;;6.20;5.70;;;29.40;38.50;;;;;;5012162;28;20658;-51
2023/06/19 02:46:18;;;;;;;6.50;6.00;;;29.40;38.70;;;;;;5012480;28;20252;-48
2023/06/19 02:48:43;;;;;;;7.50;6.10;;;29.30;38.90;;;;;;5025362;28;20704;-48
2023/06/19 02:51:09;;;;;;;5.43;4.97;;;29.30;38.90;;;;;;5032574;28;20221;-45
2023/06/19 02:53:35;;;;;;;5.50;5.10;;;29.30;39.00;;;;;;5032050;28;20280;-51
2023/06/19 02:56:00;;;;;;;6.30;5.70;;;29.30;39.10;;;;;;5028450;28;20189;-50
2023/06/19 02:58:26;;;;;;;6.20;5.70;;;29.10;40.20;;;;;;5018167;28;20831;-50
2023/06/19 03:00:52;;;;;;;5.73;5.13;;;29.00;39.60;;;;;;5032413;28;20205;-47
2023/06/19 03:03:18;;;;;;;6.17;5.50;;;29.10;39.40;;;;;;5031812;28;21158;-49
2023/06/19 03:05:43;;;;;;;6.93;5.67;;;29.10;39.60;;;;;;5029996;28;20703;-49
2023/06/19 03:08:09;;;;;;;6.70;6.03;;;29.10;40.00;;;;;;5031140;28;20228;-49
2023/06/19 03:10:34;;;;;;;6.93;5.63;;;29.10;39.40;;;;;;5015068;28;20225;-45
2023/06/19 03:13:00;;;;;;;5.87;5.47;;;29.10;39.70;;;;;;5011482;28;20198;-48
2023/06/19 03:15:26;;;;;;;5.87;5.47;;;29.00;40.10;;;;;;5012175;28;20273;-47
2023/06/19 03:17:53;;;;;;;5.80;5.37;;;28.90;40.10;;;;;;5019387;28;20197;-49
2023/06/19 03:20:20;;;;;;;7.83;5.90;;;28.90;40.30;;;;;;5029261;28;20255;-47
2023/06/19 03:22:46;;;;;;;6.87;5.87;;;28.90;40.20;;;;;;5031597;28;20436;-52
2023/06/19 03:25:12;;;;;;;6.33;5.83;;;28.90;40.20;;;;;;5031143;28;20424;-46
2023/06/19 03:27:37;;;;;;;6.33;5.73;;;28.90;40.30;;;;;;5032037;28;20209;-46
2023/06/19 03:30:08;;;;;;;6.00;5.60;;;28.90;40.40;;;;;;5026663;28;20232;-46
2023/06/19 03:32:33;;;;;;;6.73;6.13;;;28.90;40.40;;;;;;5010273;28;20201;-47
2023/06/19 03:34:59;;;;;;;7.20;6.60;;;28.90;40.50;;;;;;5010975;28;20722;-50
2023/06/19 03:37:25;;;;;;;5.90;5.50;;;28.80;40.70;;;;;;5012171;28;20190;-48
2023/06/19 03:39:50;;;;;;;6.83;6.33;;;28.60;41.40;;;;;;5013672;28;20670;-49
2023/06/19 03:42:16;;;;;;;6.60;6.10;;;28.40;41.80;;;;;;5020955;28;20271;-46
2023/06/19 03:44:41;;;;;;;6.10;5.60;;;28.40;42.20;;;;;;5010838;28;20190;-48
2023/06/19 03:47:07;;;;;;;6.87;6.07;;;28.30;42.50;;;;;;5011785;28;20237;-48
2023/06/19 03:49:33;;;;;;;5.97;5.47;;;28.20;42.80;;;;;;5024122;28;20226;-50
2023/06/19 03:51:58;;;;;;;6.00;5.60;;;28.10;43.00;;;;;;5025513;28;20567;-46
2023/06/19 03:54:26;;;;;;;5.77;5.27;;;28.20;42.90;;;;;;5030547;28;20648;-47
2023/06/19 03:56:51;;;;;;;5.37;4.87;;;28.20;42.90;;;;;;5028801;28;20197;-51
2023/06/19 03:59:17;;;;;;;5.40;4.97;;;28.30;42.90;;;;;;5012011;28;20812;-50
2023/06/19 04:01:43;;;;;;;5.33;4.93;;;28.30;42.80;;;;;;5011087;28;20638;-49
2023/06/19 04:04:08;;;;;;;4.50;4.10;;;28.40;42.80;;;;;;5010659;28;20627;-46
2023/06/19 04:06:34;;;;;;;5.47;4.87;;;28.50;42.80;;;;;;5023413;28;20331;-51
2023/06/19 04:08:59;;;;;;;5.70;5.20;;;28.40;42.60;;;;;;5028686;28;20632;-50
2023/06/19 04:11:25;;;;;;;7.60;5.13;;;28.20;43.20;;;;;;5030038;28;20194;-51
2023/06/19 04:13:50;;;;;;;4.67;4.27;;;27.90;43.70;;;;;;5030087;28;20189;-52
2023/06/19 04:16:16;;;;;;;4.57;4.17;;;28.00;43.80;;;;;;5030143;28;20193;-49
2023/06/19 04:18:42;;;;;;;4.80;4.37;;;28.00;43.70;;;;;;5026235;28;20276;-50
2023/06/19 04:21:07;;;;;;;5.17;4.77;;;28.00;44.00;;;;;;5011219;28;20276;-51
2023/06/19 04:23:33;;;;;;;4.87;4.47;;;27.80;44.40;;;;;;5019848;28;20204;-47
2023/06/19 04:25:58;;;;;;;5.00;4.50;;;27.80;44.50;;;;;;5024609;28;20201;-52
2023/06/19 04:28:25;;;;;;;5.50;5.10;;;27.70;44.70;;;;;;5028385;28;20599;-52
2023/06/19 04:30:59;;;;;;;4.00;3.70;;;27.80;44.60;;;;;;5030610;28;20259;-49
2023/06/19 04:33:26;;;;;;;4.90;4.50;;;27.90;44.40;;;;;;5029767;28;20954;-46
2023/06/19 04:35:52;;;;;;;4.37;4.07;;;27.80;44.50;;;;;;5029235;28;20927;-50
2023/06/19 04:38:17;;;;;;;4.50;4.10;;;27.90;44.40;;;;;;5010744;28;20527;-47
2023/06/19 04:40:43;;;;;;;3.80;3.50;;;28.00;44.30;;;;;;5017817;28;20225;-46
2023/06/19 04:43:09;;;;;;;5.17;3.33;;;28.10;44.20;;;;;;5009510;28;20186;-49
2023/06/19 04:45:34;;;;;;;3.80;3.50;;;28.10;43.90;;;;;;5024487;28;20592;-49
2023/06/19 04:48:02;;;;;;;3.87;3.57;;;28.20;43.50;;;;;;5029500;28;20328;-49
2023/06/19 04:50:29;;;;;;;4.13;3.83;;;28.30;43.50;;;;;;5030244;28;20261;-52
2023/06/19 04:52:55;;;;;;;3.80;3.50;;;28.30;43.40;;;;;;5029650;28;20490;-50
2023/06/19 04:55:21;;;;;;;4.17;3.67;;;28.40;43.20;;;;;;5025641;28;20212;-47
2023/06/19 04:57:46;;;;;;;4.67;4.37;;;28.50;43.20;;;;;;5012451;28;20188;-51
2023/06/19 05:00:14;;;;;;;4.17;3.87;;;28.50;43.20;;;;;;5009927;28;20429;-46
2023/06/19 05:02:43;;;;;;;4.10;3.80;;;28.50;43.10;;;;;;5010090;28;20251;-50
2023/06/19 05:05:09;;;;;;;3.47;3.20;;;28.50;43.00;;;;;;5012856;28;20870;-49
2023/06/19 05:07:34;;;;;;;7.07;4.20;;;28.50;42.90;;;;;;5029849;28;20534;-49
2023/06/19 05:10:00;;;;;;;4.10;3.80;;;28.30;43.40;;;;;;5029431;28;20294;-52
2023/06/19 05:12:25;;;;;;;4.13;3.83;;;28.30;43.60;;;;;;5029920;28;20856;-50
2023/06/19 05:14:51;;;;;;;4.43;4.03;;;28.30;43.70;;;;;;5029265;28;20205;-48
2023/06/19 05:17:17;;;;;;;4.47;4.03;;;28.20;43.80;;;;;;5026607;28;20190;-51
2023/06/19 05:19:42;;;;;;;3.87;3.57;;;28.10;44.20;;;;;;5018759;28;20535;-51
2023/06/19 05:22:08;;;;;;;4.00;3.70;;;28.00;44.60;;;;;;5024895;28;20197;-48
2023/06/19 05:24:33;;;;;;;4.43;3.53;;;28.20;44.60;;;;;;5029392;28;20232;-49
2023/06/19 05:26:59;;;;;;;4.47;4.07;;;28.30;44.20;;;;;;5027188;28;20197;-45
2023/06/19 05:29:25;;;;;;;4.10;3.80;;;28.40;44.00;;;;;;5029697;28;20734;-45
2023/06/19 05:31:50;;;;;;;6.23;3.70;;;28.40;43.90;;;;;;5030110;28;20202;-46
2023/06/19 05:34:16;;;;;;;5.13;4.70;;;28.40;44.00;;;;;;5029734;28;20806;-51
2023/06/19 05:36:44;;;;;;;5.10;4.70;;;28.40;43.90;;;;;;5029839;28;20253;-46
2023/06/19 05:39:10;;;;;;;4.63;4.23;;;28.40;44.20;;;;;;5026961;28;20194;-46
2023/06/19 05:41:36;;;;;;;5.20;4.80;;;28.20;44.50;;;;;;5028494;28;21246;-46
2023/06/19 05:44:01;;;;;;;5.30;4.47;;;28.20;44.70;;;;;;5032020;28;20684;-48
2023/06/19 05:46:27;;;;;;;8.17;5.40;;;28.20;44.70;;;;;;5033360;28;20197;-45
2023/06/19 05:48:54;;;;;;;6.17;5.07;;;28.30;44.80;;;;;;5028946;28;20260;-45
2023/06/19 05:51:20;;;;;;;10.17;4.53;;;28.30;44.60;;;;;;5031115;28;20278;-48
2023/06/19 05:53:46;;;;;;;4.90;4.40;;;28.30;44.70;;;;;;5023539;28;20444;-46
2023/06/19 05:56:12;;;;;;;5.20;4.80;;;28.30;44.90;;;;;;5019994;28;20660;-47
2023/06/19 05:58:39;;;;;;;4.23;3.83;;;28.40;44.80;;;;;;5013279;28;20467;-47
2023/06/19 06:01:04;;;;;;;5.23;4.57;;;28.40;44.90;;;;;;5013650;28;20230;-46
2023/06/19 06:03:30;;;;;;;4.37;4.03;;;28.50;45.00;;;;;;5012528;28;20464;-51
2023/06/19 06:06:02;;;;;;;5.20;4.40;;;28.50;45.00;;;;;;5026757;28;20759;-46
2023/06/19 06:08:29;;;;;;;4.87;4.33;;;28.50;45.00;;;;;;5018792;28;20440;-46
2023/06/19 06:10:55;;;;;;;4.50;4.20;;;28.60;44.80;;;;;;5028534;28;20494;-45
2023/06/19 06:13:20;;;;;;;4.73;4.33;;;28.70;44.50;;;;;;5032674;28;20428;-45
2023/06/19 06:15:46;;;;;;;4.40;4.00;;;28.80;44.50;;;;;;5024310;28;20205;-46
2023/06/19 06:18:11;;;;;;;7.43;3.73;;;28.80;44.60;;;;;;5024507;28;20568;-46
2023/06/19 06:20:37;;;;;;;6.30;4.63;;;28.80;44.70;;;;;;5030301;28;20200;-46
2023/06/19 06:23:03;;;;;;;3.80;3.43;;;28.90;44.70;;;;;;5032374;28;20193;-46
2023/06/19 06:25:28;;;;;;;4.13;3.83;;;29.00;44.60;;;;;;5032747;28;20589;-47
2023/06/19 06:27:54;;;;;;;4.17;3.73;;;28.90;44.60;;;;;;5033087;28;20224;-47
2023/06/19 06:30:20;;;;;;;5.93;4.13;;;28.90;44.70;;;;;;5024706;28;20236;-46
2023/06/19 06:32:45;;;;;;;3.90;3.60;;;28.80;45.00;;;;;;5029704;28;20234;-48
2023/06/19 06:35:11;;;;;;;6.33;4.13;;;28.90;44.80;;;;;;5031945;28;20727;-46
2023/06/19 06:37:36;;;;;;;4.60;4.30;;;29.00;44.70;;;;;;5032774;28;20208;-50
2023/06/19 06:40:05;;;;;;;4.13;3.90;;;29.00;44.60;;;;;;5032267;28;20225;-46
2023/06/19 06:42:30;;;;;;;4.30;4.00;;;29.00;44.60;;;;;;5027170;28;20259;-54
2023/06/19 06:44:56;;;;;;;4.33;3.93;;;28.90;44.60;;;;;;5031786;28;20465;-46
2023/06/19 06:47:21;;;;;;;4.73;4.33;;;29.00;44.70;;;;;;5032683;28;20791;-46
2023/06/19 06:49:47;;;;;;;4.13;3.83;;;29.10;44.60;;;;;;5031875;28;20743;-46
2023/06/19 06:52:13;;;;;;;4.37;4.07;;;29.20;44.50;;;;;;5022355;28;20630;-45
2023/06/19 06:54:38;;;;;;;4.20;3.90;;;29.20;44.30;;;;;;5013358;28;20201;-46
2023/06/19 06:57:05;;;;;;;4.23;3.80;;;29.30;44.20;;;;;;5029323;28;20204;-46
2023/06/19 06:59:31;;;;;;;4.40;4.00;;;29.40;44.10;;;;;;5012934;28;20213;-50
2023/06/19 07:01:56;;;;;;;6.77;4.37;;;29.60;43.90;;;;;;5012308;28;20556;-50
2023/06/19 07:04:22;;;;;;;6.77;3.70;;;29.70;43.50;;;;;;5024305;28;20531;-46
2023/06/19 07:06:48;;;;;;;14.37;4.27;;;29.90;43.20;;;;;;5019429;28;20205;-48
2023/06/19 07:09:15;;;;;;;10.67;3.63;;;29.90;43.30;;;;;;5028462;28;20201;-45
2023/06/19 07:11:40;;;;;;;8.00;3.73;;;30.00;43.30;;;;;;5031987;28;20865;-47
2023/06/19 07:14:06;;;;;;;5.33;3.30;;;30.20;43.20;;;;;;5031382;28;20432;-46
2023/06/19 07:16:31;;;;;;;5.60;3.33;;;30.10;42.70;;;;;;5031466;28;20251;-46
2023/06/19 07:18:57;;;;;;;6.13;3.43;;;30.10;42.80;;;;;;5027487;28;20640;-48
2023/06/19 07:21:23;;;;;;;3.80;3.07;;;30.30;43.00;;;;;;5031400;28;20194;-49
2023/06/19 07:23:49;;;;;;;4.13;2.63;;;30.40;42.50;;;;;;5030910;28;20561;-47
2023/06/19 07:26:15;;;;;;;2.93;2.73;;;30.30;42.40;;;;;;5031241;28;20197;-45
2023/06/19 07:28:41;;;;;;;3.20;3.00;;;30.30;42.30;;;;;;5023852;28;20449;-46
2023/06/19 07:31:07;;;;;;;3.17;2.97;;;30.20;42.50;;;;;;5011648;28;20226;-49
2023/06/19 07:33:33;;;;;;;5.20;4.20;;;30.10;42.70;;;;;;5010692;28;20448;-48
2023/06/19 07:35:59;;;;;;;5.53;3.50;;;30.20;42.70;;;;;;5009539;28;20437;-46
2023/06/19 07:38:24;;;;;;;8.40;3.90;;;30.40;42.60;;;;;;5012331;28;20218;-47
2023/06/19 07:40:50;;;;;;;3.73;3.27;;;30.50;42.40;;;;;;5019744;28;20197;-49
2023/06/19 07:43:17;;;;;;;3.30;3.10;;;30.50;42.20;;;;;;5030544;28;20204;-48
2023/06/19 07:45:43;;;;;;;2.80;2.60;;;30.50;41.80;;;;;;5030737;28;20199;-47
2023/06/19 07:48:08;;;;;;;3.27;3.07;;;30.40;41.50;;;;;;5030343;28;20452;-50
2023/06/19 07:50:34;;;;;;;3.43;3.23;;;30.30;41.60;;;;;;5027702;28;20225;-45
2023/06/19 07:52:59;;;;;;;3.30;2.97;;;30.30;41.90;;;;;;5028232;28;20221;-45
2023/06/19 07:55:25;;;;;;;2.97;2.77;;;30.40;41.90;;;;;;5025450;28;20189;-45
2023/06/19 07:57:52;;;;;;;2.97;2.77;;;30.50;41.50;;;;;;5012817;28;20222;-45
2023/06/19 08:00:18;;;;;;;2.80;2.60;;;30.50;41.20;;;;;;5010482;28;20197;-46
2023/06/19 08:02:43;;;;;;;2.60;2.40;;;30.60;40.80;;;;;;5009478;28;20429;-49
2023/06/19 08:05:10;;;;;;;2.57;2.37;;;30.70;40.20;;;;;;5010355;28;20221;-49
2023/06/19 08:07:36;;;;;;;3.60;2.70;;;30.70;40.40;;;;;;5017709;28;20198;-50
2023/06/19 08:10:03;;;;;;;2.90;2.60;;;30.80;39.90;;;;;;5010489;28;21070;-51
2023/06/19 08:12:29;;;;;;;2.70;2.50;;;31.00;39.50;;;;;;5026133;28;20263;-50
2023/06/19 08:14:55;;;;;;;2.57;2.37;;;30.80;39.40;;;;;;5018131;28;20429;-50
2023/06/19 08:17:21;;;;;;;2.67;2.47;;;30.80;40.00;;;;;;5010606;28;20499;-48
2023/06/19 08:19:47;;;;;;;2.77;2.43;;;30.70;40.00;;;;;;5018531;28;20268;-50
2023/06/19 08:22:13;;;;;;;2.23;2.13;;;30.80;40.10;;;;;;5027574;28;20193;-52
2023/06/19 08:24:40;;;;;;;2.80;2.60;;;30.80;39.70;;;;;;5026628;28;20443;-47
2023/06/19 08:27:06;;;;;;;2.33;2.20;;;30.80;39.30;;;;;;5030251;28;20722;-49
2023/06/19 08:29:32;;;;;;;3.00;2.80;;;31.00;39.30;;;;;;5029431;28;20472;-50
2023/06/19 08:31:57;;;;;;;2.60;2.50;;;31.20;39.10;;;;;;5029529;28;20656;-51
2023/06/19 08:34:23;;;;;;;3.53;2.70;;;31.40;39.00;;;;;;5027219;28;20190;-45
2023/06/19 08:36:49;;;;;;;2.47;2.27;;;31.60;38.20;;;;;;5027723;28;20201;-49
2023/06/19 08:39:14;;;;;;;11.00;3.63;;;31.80;38.30;;;;;;5026994;28;20526;-50
2023/06/19 08:41:41;;;;;;;2.63;2.43;;;31.90;37.50;;;;;;5029545;28;20181;-48
2023/06/19 08:44:07;;;;;;;2.87;2.53;;;31.90;38.20;;;;;;5029437;28;20331;-50
2023/06/19 08:46:34;;;;;;;2.33;2.23;;;32.20;37.70;;;;;;5029897;28;20905;-49
2023/06/19 08:49:00;;;;;;;2.83;2.63;;;32.20;36.80;;;;;;5028848;28;20472;-47
2023/06/19 08:51:28;;;;;;;2.50;2.40;;;31.90;36.70;;;;;;5028803;28;20633;-46
2023/06/19 08:53:56;;;;;;;2.77;2.57;;;32.00;36.70;;;;;;5027270;28;20485;-50
2023/06/19 08:56:22;;;;;;;2.73;2.53;;;31.70;37.00;;;;;;5029135;28;20443;-51
2023/06/19 08:58:47;;;;;;;2.70;2.53;;;31.60;37.60;;;;;;5016546;28;20437;-51
2023/06/19 09:01:19;;;;;;;2.57;2.00;;;31.50;37.80;;;;;;5010697;28;20548;-47
2023/06/19 09:03:46;;;;;;;3.30;3.10;;;31.30;38.00;;;;;;5009931;28;20190;-50
2023/06/19 09:06:16;;;;;;;3.13;2.93;;;31.20;38.20;;;;;;5009863;28;20448;-47
2023/06/19 09:08:41;;;;;;;5.73;2.57;;;31.30;38.70;;;;;;5010013;28;20429;-49
2023/06/19 09:11:07;;;;;;;3.20;3.00;;;31.40;38.70;;;;;;5024524;28;20498;-50
2023/06/19 09:13:33;;;;;;;3.27;3.03;;;31.50;38.60;;;;;;5015128;28;20186;-50
2023/06/19 09:16:03;;;;;;;2.80;2.60;;;31.60;38.60;;;;;;5016522;28;20185;-47
2023/06/19 09:18:31;;;;;;;3.27;3.07;;;31.50;38.70;;;;;;5029102;28;20447;-49
2023/06/19 09:20:57;;;;;;;3.20;2.97;;;31.80;38.00;;;;;;5034297;28;20498;-47
2023/06/19 09:23:24;;;;;;;2.80;2.53;;;32.10;37.30;;;;;;5033212;28;20427;-51
2023/06/19 09:25:52;;;;;;;5.10;3.40;;;32.20;37.30;;;;;;5031764;28;20735;-48
2023/06/19 09:28:27;;;;;;;3.30;3.10;;;32.50;36.80;;;;;;5031400;28;20531;-51
2023/06/19 09:31:00;;;;;;;3.27;2.97;;;32.80;36.40;;;;;;5030976;28;20988;-46
2023/06/19 09:33:30;;;;;;;3.27;3.03;;;33.20;36.30;;;;;;5033040;28;20523;-49
2023/06/19 09:35:58;;;;;;;3.20;3.00;;;33.60;35.60;;;;;;5033551;28;20923;-47
2023/06/19 09:38:27;;;;;;;4.70;3.30;;;33.60;35.00;;;;;;5032818;28;20423;-50
2023/06/19 09:40:53;;;;;;;2.60;2.50;;;33.90;34.60;;;;;;5031241;28;20815;-48
2023/06/19 09:43:33;;;;;;;3.27;3.07;;;34.30;34.70;;;;;;5025206;28;20539;-46
2023/06/19 09:45:59;;;;;;;3.30;3.10;;;34.60;34.30;;;;;;5013363;28;20448;-51
2023/06/19 09:48:34;;;;;;;3.33;3.13;;;34.90;34.30;;;;;;5020539;28;20472;-46
2023/06/19 09:51:21;;;;;;;3.37;3.17;;;35.10;33.10;;;;;;5027377;28;20728;-50
2023/06/19 09:53:48;;;;;;;3.43;3.13;;;35.40;32.80;;;;;;5012988;28;20460;-46
2023/06/19 09:56:15;;;;;;;3.70;3.50;;;35.30;32.40;;;;;;5022658;28;21069;-48
2023/06/19 09:58:43;;;;;;;3.70;3.40;;;35.30;32.40;;;;;;5011762;28;20930;-49
2023/06/19 10:01:08;;;;;;;3.87;3.57;;;35.20;32.80;;;;;;5015959;28;20501;-47
2023/06/19 10:03:35;;;;;;;3.50;3.20;;;35.40;32.70;;;;;;5032636;28;20918;-46
2023/06/19 10:06:02;;;;;;;3.57;2.70;;;35.80;32.10;;;;;;5032604;28;20188;-50
2023/06/19 10:08:38;;;;;;;3.53;3.20;;;36.00;32.50;;;;;;5032249;28;20424;-46
2023/06/19 10:11:04;;;;;;;3.07;2.87;;;36.10;31.40;;;;;;5032889;28;20877;-51
2023/06/19 10:13:35;;;;;;;6.10;3.40;;;36.30;30.90;;;;;;5026665;28;20436;-48
2023/06/19 10:16:01;;;;;;;3.10;2.90;;;36.50;30.50;;;;;;5032515;28;20201;-48
2023/06/19 10:18:26;;;;;;;2.97;2.77;;;35.90;31.00;;;;;;5030597;28;20454;-52
2023/06/19 10:20:54;;;;;;;3.30;3.07;;;35.90;32.00;;;;;;5032938;28;20212;-46
2023/06/19 10:23:22;;;;;;;3.13;3.00;;;36.10;31.40;;;;;;5019374;28;21020;-49
2023/06/19 10:25:56;;;;;;;3.50;3.30;;;36.30;31.30;;;;;;5012282;28;20433;-46
2023/06/19 10:28:27;;;;;;;3.47;3.27;;;36.40;31.20;;;;;;5029893;28;20997;-47
2023/06/19 10:31:01;;;;;;;4.50;3.17;;;36.60;30.60;;;;;;5032609;28;20579;-46
2023/06/19 10:33:34;;;;;;;3.07;2.87;;;36.80;30.50;;;;;;5032213;28;20435;-50
2023/06/19 10:36:15;;;;;;;3.47;3.20;;;37.00;30.80;;;;;;5032383;28;20438;-49
2023/06/19 10:38:43;;;;;;;3.47;3.27;;;37.00;30.00;;;;;;5028430;28;20451;-47
2023/06/19 10:41:18;;;;;;;3.67;3.47;;;36.90;30.00;;;;;;5031518;28;20447;-46
2023/06/19 10:44:06;;;;;;;3.50;3.30;;;37.10;30.00;;;;;;5032026;28;20438;-47
2023/06/19 10:46:35;;;;;;;3.40;3.20;;;37.30;29.60;;;;;;5030616;28;20953;-49
2023/06/19 10:49:04;;;;;;;4.07;3.30;;;36.40;30.00;;;;;;5027979;28;20578;-46
2023/06/19 10:51:30;;;;;;;3.47;3.17;;;36.70;30.30;;;;;;5012774;28;20905;-47
2023/06/19 10:53:57;;;;;;;3.57;3.37;;;36.80;29.80;;;;;;5020730;28;20470;-46
2023/06/19 10:56:24;;;;;;;3.17;2.93;;;37.10;29.50;;;;;;5031756;28;20762;-47
2023/06/19 10:58:57;;;;;;;3.60;3.30;;;37.20;29.40;;;;;;5018132;28;20444;-47
2023/06/19 11:01:32;;;;;;;3.87;3.67;;;37.50;29.10;;;;;;5019702;28;20423;-46
2023/06/19 11:03:57;;;;;;;4.17;3.87;;;37.80;29.50;;;;;;5028792;28;20456;-50
2023/06/19 11:06:24;;;;;;;3.90;3.60;;;38.00;29.30;;;;;;5028679;28;20449;-47
2023/06/19 11:08:53;;;;;;;4.10;3.70;;;38.20;29.60;;;;;;5028884;28;20200;-47
2023/06/19 11:14:15;;;;;;;4.40;4.20;;;38.60;29.60;;;;;;5050933;22;20502;-51
2023/06/19 11:16:42;;;;;;;4.07;3.80;;;38.80;29.20;;;;;;5024548;28;20972;-54
2023/06/19 11:19:13;;;;;;;8.47;4.00;;;38.70;28.80;;;;;;5026266;28;20486;-54
2023/06/19 11:21:39;;;;;;;4.17;3.87;;;38.60;29.50;;;;;;5021507;28;20811;-50
2023/06/19 11:24:12;;;;;;;4.40;4.10;;;38.50;29.60;;;;;;5024906;28;20454;-49
2023/06/19 11:26:39;;;;;;;4.20;3.90;;;38.30;29.60;;;;;;5031243;28;20651;-49
2023/06/19 11:29:20;;;;;;;4.80;4.30;;;38.20;29.40;;;;;;5025323;28;20447;-50
2023/06/19 11:31:47;;;;;;;5.20;3.80;;;38.10;29.60;;;;;;5029995;28;20523;-52
2023/06/19 11:34:13;;;;;;;3.93;3.63;;;38.20;29.90;;;;;;5025495;28;20456;-50
2023/06/19 11:36:39;;;;;;;3.93;3.63;;;38.30;30.20;;;;;;5024052;28;21048;-52
2023/06/19 11:39:10;;;;;;;3.63;3.43;;;38.40;29.60;;;;;;5029112;28;20466;-51
2023/06/19 11:41:36;;;;;;;3.87;3.67;;;38.60;29.20;;;;;;5026595;28;20493;-50
2023/06/19 11:44:06;;;;;;;4.57;4.27;;;38.60;29.70;;;;;;5026809;28;20840;-49
2023/06/19 11:46:33;;;;;;;3.80;3.60;;;38.40;29.40;;;;;;5030118;28;20212;-52
2023/06/19 11:49:18;;;;;;;4.13;3.80;;;38.10;29.20;;;;;;5028962;28;20989;-48
2023/06/19 11:51:44;;;;;;;4.73;4.33;;;38.00;29.20;;;;;;5028634;28;20465;-49
2023/06/19 11:54:11;;;;;;;4.33;4.03;;;38.10;29.40;;;;;;5027579;28;20471;-48
2023/06/19 11:56:38;;;;;;;4.40;4.10;;;38.10;29.50;;;;;;5019358;28;20474;-51
2023/06/19 11:59:04;;;;;;;4.13;3.93;;;37.80;29.30;;;;;;5029653;28;20451;-49
2023/06/19 12:01:34;;;;;;;3.73;3.53;;;37.90;29.30;;;;;;5030158;28;20450;-55
2023/06/19 12:04:00;;;;;;;5.10;3.80;;;37.80;29.30;;;;;;5028668;28;20522;-53
2023/06/19 12:06:27;;;;;;;3.87;3.57;;;37.70;29.70;;;;;;5029328;28;21041;-49
2023/06/19 12:08:53;;;;;;;4.30;4.00;;;37.60;30.20;;;;;;5029178;28;20530;-48
2023/06/19 12:11:18;;;;;;;3.87;3.60;;;37.60;29.90;;;;;;5026888;28;20574;-48
2023/06/19 12:13:44;;;;;;;4.27;3.90;;;37.60;30.30;;;;;;5026438;28;20295;-49
2023/06/19 12:16:10;;;;;;;3.50;3.30;;;37.30;30.10;;;;;;5027408;28;20200;-51
2023/06/19 12:18:36;;;;;;;4.60;4.20;;;37.20;30.10;;;;;;5021201;28;20272;-48
2023/06/19 12:21:02;;;;;;;4.80;4.07;;;37.00;30.70;;;;;;5017214;28;20204;-49
2023/06/19 12:23:28;;;;;;;3.63;3.33;;;37.00;30.80;;;;;;5025315;28;20548;-50
2023/06/19 12:25:54;;;;;;;4.70;4.30;;;37.10;31.00;;;;;;5028255;28;20435;-48
2023/06/19 12:28:19;;;;;;;3.60;3.40;;;37.40;30.70;;;;;;5026461;28;20344;-49
2023/06/19 12:30:45;;;;;;;3.87;3.57;;;37.70;31.20;;;;;;5026761;28;20225;-49
2023/06/19 12:33:11;;;;;;;3.87;3.67;;;37.90;30.10;;;;;;5023578;28;20560;-49
2023/06/19 12:35:41;;;;;;;3.90;3.60;;;38.30;29.60;;;;;;5024764;28;20446;-50
2023/06/19 12:38:07;;;;;;;3.93;3.63;;;38.60;30.00;;;;;;5022538;28;20203;-48
2023/06/19 12:40:33;;;;;;;4.00;3.70;;;38.70;29.00;;;;;;5025125;28;20534;-49
2023/06/19 12:42:59;;;;;;;4.67;4.30;;;38.80;29.10;;;;;;5027210;28;20530;-55
2023/06/19 12:45:24;;;;;;;4.43;4.13;;;38.70;29.30;;;;;;5025937;28;22618;-48
2023/06/19 12:47:50;;;;;;;6.00;3.87;;;38.60;29.80;;;;;;5025066;28;20584;-51